sensor_id;sensor_type;location;lat;lon;timestamp;temperature;humidity
34201;DHT22;20469;55.638;37.670;2022-07-23T00:00:27;19.20;99.90
34201;DHT22;20469;55.638;37.670;2022-07-23T00:02:59;19.20;99.90
34201;DHT22;20469;55.638;37.670;2022-07-23T00:05:26;19.00;99.90
34201;DHT22;20469;55.638;37.670;2022-07-23T00:07:54;19.10;99.90
34201;DHT22;20469;55.638;37.670;2022-07-23T00:10:21;19.20;99.90
34201;DHT22;20469;55.638;37.670;2022-07-23T00:12:48;19.10;99.90
34201;DHT22;20469;55.638;37.670;2022-07-23T00:15:18;19.10;99.90
34201;DHT22;20469;55.638;37.670;2022-07-23T00:17:46;19.10;99.90
34201;DHT22;20469;55.638;37.670;2022-07-23T00:20:13;19.10;99.90
34201;DHT22;20469;55.638;37.670;2022-07-23T00:22:48;19.00;99.90
34201;DHT22;20469;55.638;37.670;2022-07-23T00:25:16;19.00;99.90
34201;DHT22;20469;55.638;37.670;2022-07-23T00:28:00;18.90;99.90
34201;DHT22;20469;55.638;37.670;2022-07-23T00:30:28;18.50;99.90
34201;DHT22;20469;55.638;37.670;2022-07-23T00:33:09;18.50;99.90
34201;DHT22;20469;55.638;37.670;2022-07-23T00:35:38;18.70;99.90
34201;DHT22;20469;55.638;37.670;2022-07-23T00:38:10;18.80;99.90
34201;DHT22;20469;55.638;37.670;2022-07-23T00:40:39;18.60;99.90
34201;DHT22;20469;55.638;37.670;2022-07-23T00:43:07;18.50;99.90
34201;DHT22;20469;55.638;37.670;2022-07-23T00:45:34;18.40;99.90
34201;DHT22;20469;55.638;37.670;2022-07-23T00:48:02;18.40;99.90
34201;DHT22;20469;55.638;37.670;2022-07-23T00:50:30;18.40;99.90
34201;DHT22;20469;55.638;37.670;2022-07-23T00:52:57;18.50;99.90
34201;DHT22;20469;55.638;37.670;2022-07-23T00:55:25;18.30;99.90
34201;DHT22;20469;55.638;37.670;2022-07-23T00:57:53;18.20;99.90
34201;DHT22;20469;55.638;37.670;2022-07-23T01:00:20;18.30;99.90
34201;DHT22;20469;55.638;37.670;2022-07-23T01:02:58;18.40;99.90
34201;DHT22;20469;55.638;37.670;2022-07-23T01:05:25;18.60;99.90
34201;DHT22;20469;55.638;37.670;2022-07-23T01:07:52;18.60;99.90
34201;DHT22;20469;55.638;37.670;2022-07-23T01:10:23;18.50;99.90
34201;DHT22;20469;55.638;37.670;2022-07-23T01:13:07;18.50;99.90
34201;DHT22;20469;55.638;37.670;2022-07-23T01:15:37;18.40;99.90
34201;DHT22;20469;55.638;37.670;2022-07-23T01:18:06;18.40;99.90
34201;DHT22;20469;55.638;37.670;2022-07-23T01:20:34;18.30;99.90
34201;DHT22;20469;55.638;37.670;2022-07-23T01:23:01;18.10;99.90
34201;DHT22;20469;55.638;37.670;2022-07-23T01:25:29;17.90;99.90
34201;DHT22;20469;55.638;37.670;2022-07-23T01:27:56;18.10;99.90
34201;DHT22;20469;55.638;37.670;2022-07-23T01:30:24;18.20;99.90
34201;DHT22;20469;55.638;37.670;2022-07-23T01:32:51;18.40;99.90
34201;DHT22;20469;55.638;37.670;2022-07-23T01:35:18;18.60;99.90
34201;DHT22;20469;55.638;37.670;2022-07-23T01:37:45;18.50;99.90
34201;DHT22;20469;55.638;37.670;2022-07-23T01:40:13;18.50;99.90
34201;DHT22;20469;55.638;37.670;2022-07-23T01:42:40;18.50;99.90
34201;DHT22;20469;55.638;37.670;2022-07-23T01:45:08;18.40;99.90
34201;DHT22;20469;55.638;37.670;2022-07-23T01:47:35;18.60;99.90
34201;DHT22;20469;55.638;37.670;2022-07-23T01:50:03;18.60;99.90
34201;DHT22;20469;55.638;37.670;2022-07-23T01:52:30;18.70;99.90
34201;DHT22;20469;55.638;37.670;2022-07-23T01:54:57;18.40;99.90
34201;DHT22;20469;55.638;37.670;2022-07-23T01:57:25;18.30;99.90
34201;DHT22;20469;55.638;37.670;2022-07-23T01:59:54;18.40;99.90
34201;DHT22;20469;55.638;37.670;2022-07-23T02:02:21;18.50;99.90
34201;DHT22;20469;55.638;37.670;2022-07-23T02:04:49;18.70;99.90
34201;DHT22;20469;55.638;37.670;2022-07-23T02:07:17;18.70;99.90
34201;DHT22;20469;55.638;37.670;2022-07-23T02:09:45;18.70;99.90
34201;DHT22;20469;55.638;37.670;2022-07-23T02:12:12;18.90;99.90
34201;DHT22;20469;55.638;37.670;2022-07-23T02:14:40;19.00;99.90
34201;DHT22;20469;55.638;37.670;2022-07-23T02:17:07;19.00;99.90
34201;DHT22;20469;55.638;37.670;2022-07-23T02:19:35;19.10;99.90
34201;DHT22;20469;55.638;37.670;2022-07-23T02:22:02;19.20;99.90
34201;DHT22;20469;55.638;37.670;2022-07-23T02:24:29;19.20;99.90
34201;DHT22;20469;55.638;37.670;2022-07-23T02:26:56;19.10;99.90
34201;DHT22;20469;55.638;37.670;2022-07-23T02:29:24;19.30;99.90
34201;DHT22;20469;55.638;37.670;2022-07-23T02:31:51;19.40;99.90
34201;DHT22;20469;55.638;37.670;2022-07-23T02:34:18;19.40;99.90
34201;DHT22;20469;55.638;37.670;2022-07-23T02:36:46;19.50;99.90
34201;DHT22;20469;55.638;37.670;2022-07-23T02:39:13;19.70;99.90
34201;DHT22;20469;55.638;37.670;2022-07-23T02:41:41;19.70;99.90
34201;DHT22;20469;55.638;37.670;2022-07-23T02:44:08;19.70;99.90
34201;DHT22;20469;55.638;37.670;2022-07-23T02:46:35;19.70;99.90
34201;DHT22;20469;55.638;37.670;2022-07-23T02:49:03;19.80;99.90
34201;DHT22;20469;55.638;37.670;2022-07-23T02:51:32;19.70;99.90
34201;DHT22;20469;55.638;37.670;2022-07-23T02:53:59;19.80;99.90
34201;DHT22;20469;55.638;37.670;2022-07-23T02:56:26;19.90;99.90
34201;DHT22;20469;55.638;37.670;2022-07-23T02:58:54;20.10;99.90
34201;DHT22;20469;55.638;37.670;2022-07-23T03:01:21;20.20;99.90
34201;DHT22;20469;55.638;37.670;2022-07-23T03:03:48;20.30;99.90
34201;DHT22;20469;55.638;37.670;2022-07-23T03:06:16;20.10;99.90
34201;DHT22;20469;55.638;37.670;2022-07-23T03:08:43;20.30;99.90
34201;DHT22;20469;55.638;37.670;2022-07-23T03:11:10;20.30;99.90
34201;DHT22;20469;55.638;37.670;2022-07-23T03:13:38;20.30;99.90
34201;DHT22;20469;55.638;37.670;2022-07-23T03:16:06;20.40;99.90
34201;DHT22;20469;55.638;37.670;2022-07-23T03:18:34;20.40;99.90
34201;DHT22;20469;55.638;37.670;2022-07-23T03:21:07;20.50;99.90
34201;DHT22;20469;55.638;37.670;2022-07-23T03:23:34;20.60;99.90
34201;DHT22;20469;55.638;37.670;2022-07-23T03:26:02;20.50;99.90
34201;DHT22;20469;55.638;37.670;2022-07-23T03:28:29;20.50;99.90
34201;DHT22;20469;55.638;37.670;2022-07-23T03:30:57;20.50;99.90
34201;DHT22;20469;55.638;37.670;2022-07-23T03:33:24;20.60;99.90
34201;DHT22;20469;55.638;37.670;2022-07-23T03:35:51;20.60;99.90
34201;DHT22;20469;55.638;37.670;2022-07-23T03:38:18;20.60;99.90
34201;DHT22;20469;55.638;37.670;2022-07-23T03:40:46;20.70;99.90
34201;DHT22;20469;55.638;37.670;2022-07-23T03:43:13;20.80;99.90
34201;DHT22;20469;55.638;37.670;2022-07-23T03:45:40;20.90;99.90
34201;DHT22;20469;55.638;37.670;2022-07-23T03:48:08;21.10;99.90
34201;DHT22;20469;55.638;37.670;2022-07-23T03:50:35;21.20;99.90
34201;DHT22;20469;55.638;37.670;2022-07-23T03:53:04;21.30;99.90
34201;DHT22;20469;55.638;37.670;2022-07-23T03:55:31;21.60;99.90
34201;DHT22;20469;55.638;37.670;2022-07-23T03:57:58;21.50;99.90
34201;DHT22;20469;55.638;37.670;2022-07-23T04:00:26;21.60;99.90
34201;DHT22;20469;55.638;37.670;2022-07-23T04:02:53;21.40;99.90
34201;DHT22;20469;55.638;37.670;2022-07-23T04:05:20;21.60;99.90
34201;DHT22;20469;55.638;37.670;2022-07-23T04:07:48;22.10;99.90
34201;DHT22;20469;55.638;37.670;2022-07-23T04:10:15;22.00;99.90
34201;DHT22;20469;55.638;37.670;2022-07-23T04:12:42;21.90;99.90
34201;DHT22;20469;55.638;37.670;2022-07-23T04:15:10;22.00;99.90
34201;DHT22;20469;55.638;37.670;2022-07-23T04:17:37;22.10;99.90
34201;DHT22;20469;55.638;37.670;2022-07-23T04:20:05;22.20;99.90
34201;DHT22;20469;55.638;37.670;2022-07-23T04:22:32;22.20;99.90
34201;DHT22;20469;55.638;37.670;2022-07-23T04:24:59;22.20;99.90
34201;DHT22;20469;55.638;37.670;2022-07-23T04:27:27;22.40;99.90
34201;DHT22;20469;55.638;37.670;2022-07-23T04:29:54;22.40;99.90
34201;DHT22;20469;55.638;37.670;2022-07-23T04:32:21;22.30;99.90
34201;DHT22;20469;55.638;37.670;2022-07-23T04:34:48;22.40;99.90
34201;DHT22;20469;55.638;37.670;2022-07-23T04:37:16;22.30;99.90
34201;DHT22;20469;55.638;37.670;2022-07-23T04:39:43;22.50;99.90
34201;DHT22;20469;55.638;37.670;2022-07-23T04:42:11;22.30;99.90
34201;DHT22;20469;55.638;37.670;2022-07-23T04:44:38;22.60;99.90
34201;DHT22;20469;55.638;37.670;2022-07-23T04:47:06;22.60;99.90
34201;DHT22;20469;55.638;37.670;2022-07-23T04:49:33;22.60;99.90
34201;DHT22;20469;55.638;37.670;2022-07-23T04:52:01;22.60;99.90
34201;DHT22;20469;55.638;37.670;2022-07-23T04:54:28;22.50;99.90
34201;DHT22;20469;55.638;37.670;2022-07-23T04:56:55;22.40;99.90
34201;DHT22;20469;55.638;37.670;2022-07-23T04:59:22;22.50;99.90
34201;DHT22;20469;55.638;37.670;2022-07-23T05:01:49;22.80;99.90
34201;DHT22;20469;55.638;37.670;2022-07-23T05:04:17;22.80;99.90
34201;DHT22;20469;55.638;37.670;2022-07-23T05:06:44;22.90;99.90
34201;DHT22;20469;55.638;37.670;2022-07-23T05:09:12;23.00;99.90
34201;DHT22;20469;55.638;37.670;2022-07-23T05:11:39;22.90;99.90
34201;DHT22;20469;55.638;37.670;2022-07-23T05:14:08;23.20;99.90
34201;DHT22;20469;55.638;37.670;2022-07-23T05:16:35;23.30;99.90
34201;DHT22;20469;55.638;37.670;2022-07-23T05:19:03;23.40;99.90
34201;DHT22;20469;55.638;37.670;2022-07-23T05:21:31;23.30;99.90
34201;DHT22;20469;55.638;37.670;2022-07-23T05:23:58;23.50;99.90
34201;DHT22;20469;55.638;37.670;2022-07-23T05:26:26;23.80;99.90
34201;DHT22;20469;55.638;37.670;2022-07-23T05:28:53;23.80;99.90
34201;DHT22;20469;55.638;37.670;2022-07-23T05:31:21;23.60;99.90
34201;DHT22;20469;55.638;37.670;2022-07-23T05:33:48;23.60;99.90
34201;DHT22;20469;55.638;37.670;2022-07-23T05:36:15;24.00;99.90
34201;DHT22;20469;55.638;37.670;2022-07-23T05:38:42;23.70;99.90
34201;DHT22;20469;55.638;37.670;2022-07-23T05:41:10;24.20;99.90
34201;DHT22;20469;55.638;37.670;2022-07-23T05:43:37;24.30;99.90
34201;DHT22;20469;55.638;37.670;2022-07-23T05:46:04;24.30;99.90
34201;DHT22;20469;55.638;37.670;2022-07-23T05:48:32;24.50;99.90
34201;DHT22;20469;55.638;37.670;2022-07-23T05:50:59;24.50;99.90
34201;DHT22;20469;55.638;37.670;2022-07-23T05:53:28;24.30;99.90
34201;DHT22;20469;55.638;37.670;2022-07-23T05:55:55;24.40;99.90
34201;DHT22;20469;55.638;37.670;2022-07-23T05:58:22;24.50;99.90
34201;DHT22;20469;55.638;37.670;2022-07-23T06:00:49;24.50;99.90
34201;DHT22;20469;55.638;37.670;2022-07-23T06:03:17;24.70;99.90
34201;DHT22;20469;55.638;37.670;2022-07-23T06:05:45;24.80;99.90
34201;DHT22;20469;55.638;37.670;2022-07-23T06:08:12;25.00;99.90
34201;DHT22;20469;55.638;37.670;2022-07-23T06:10:39;24.70;99.90
34201;DHT22;20469;55.638;37.670;2022-07-23T06:13:06;24.80;99.90
34201;DHT22;20469;55.638;37.670;2022-07-23T06:15:34;24.90;99.90
34201;DHT22;20469;55.638;37.670;2022-07-23T06:18:02;24.90;99.90
34201;DHT22;20469;55.638;37.670;2022-07-23T06:20:29;25.00;99.90
34201;DHT22;20469;55.638;37.670;2022-07-23T06:22:56;25.20;99.90
34201;DHT22;20469;55.638;37.670;2022-07-23T06:25:23;25.30;99.90
34201;DHT22;20469;55.638;37.670;2022-07-23T06:27:51;25.60;99.90
34201;DHT22;20469;55.638;37.670;2022-07-23T06:30:18;25.50;99.90
34201;DHT22;20469;55.638;37.670;2022-07-23T06:32:47;25.90;99.90
34201;DHT22;20469;55.638;37.670;2022-07-23T06:35:16;25.90;99.90
34201;DHT22;20469;55.638;37.670;2022-07-23T06:37:44;25.50;99.90
34201;DHT22;20469;55.638;37.670;2022-07-23T06:40:14;25.20;99.90
34201;DHT22;20469;55.638;37.670;2022-07-23T06:42:41;25.30;99.90
34201;DHT22;20469;55.638;37.670;2022-07-23T06:45:09;25.70;99.90
34201;DHT22;20469;55.638;37.670;2022-07-23T06:47:36;25.60;99.90
34201;DHT22;20469;55.638;37.670;2022-07-23T06:50:05;25.40;99.90
34201;DHT22;20469;55.638;37.670;2022-07-23T06:52:32;25.60;99.90
34201;DHT22;20469;55.638;37.670;2022-07-23T06:55:02;25.70;99.90
34201;DHT22;20469;55.638;37.670;2022-07-23T06:57:30;26.10;99.90
34201;DHT22;20469;55.638;37.670;2022-07-23T07:00:00;26.30;99.90
34201;DHT22;20469;55.638;37.670;2022-07-23T07:02:29;26.70;99.90
34201;DHT22;20469;55.638;37.670;2022-07-23T07:04:57;26.70;99.90
34201;DHT22;20469;55.638;37.670;2022-07-23T07:07:31;26.90;99.90
34201;DHT22;20469;55.638;37.670;2022-07-23T07:09:58;26.70;99.90
34201;DHT22;20469;55.638;37.670;2022-07-23T07:12:25;26.60;99.90
34201;DHT22;20469;55.638;37.670;2022-07-23T07:14:52;27.00;99.90
34201;DHT22;20469;55.638;37.670;2022-07-23T07:17:20;27.10;99.90
34201;DHT22;20469;55.638;37.670;2022-07-23T07:19:47;27.00;99.50
34201;DHT22;20469;55.638;37.670;2022-07-23T07:22:15;27.20;99.90
34201;DHT22;20469;55.638;37.670;2022-07-23T07:24:42;27.10;99.90
34201;DHT22;20469;55.638;37.670;2022-07-23T07:27:09;26.60;99.80
34201;DHT22;20469;55.638;37.670;2022-07-23T07:29:37;27.00;98.20
34201;DHT22;20469;55.638;37.670;2022-07-23T07:32:04;27.50;98.80
34201;DHT22;20469;55.638;37.670;2022-07-23T07:34:32;27.20;96.90
34201;DHT22;20469;55.638;37.670;2022-07-23T07:36:59;27.10;98.00
34201;DHT22;20469;55.638;37.670;2022-07-23T07:39:26;27.50;97.70
34201;DHT22;20469;55.638;37.670;2022-07-23T07:41:55;27.70;96.70
34201;DHT22;20469;55.638;37.670;2022-07-23T07:44:22;27.20;97.00
34201;DHT22;20469;55.638;37.670;2022-07-23T07:46:50;27.60;96.50
34201;DHT22;20469;55.638;37.670;2022-07-23T07:49:17;28.20;96.60
34201;DHT22;20469;55.638;37.670;2022-07-23T07:51:48;27.90;94.30
34201;DHT22;20469;55.638;37.670;2022-07-23T07:54:15;28.00;94.80
34201;DHT22;20469;55.638;37.670;2022-07-23T07:56:43;27.30;93.70
34201;DHT22;20469;55.638;37.670;2022-07-23T07:59:10;26.60;94.40
34201;DHT22;20469;55.638;37.670;2022-07-23T08:01:57;26.10;94.90
34201;DHT22;20469;55.638;37.670;2022-07-23T08:04:24;26.00;98.20
34201;DHT22;20469;55.638;37.670;2022-07-23T08:06:52;25.80;96.30
34201;DHT22;20469;55.638;37.670;2022-07-23T08:09:19;26.70;96.00
34201;DHT22;20469;55.638;37.670;2022-07-23T08:11:46;27.80;92.70
34201;DHT22;20469;55.638;37.670;2022-07-23T08:14:13;27.10;93.00
34201;DHT22;20469;55.638;37.670;2022-07-23T08:16:41;27.80;92.80
34201;DHT22;20469;55.638;37.670;2022-07-23T08:19:28;28.30;91.80
34201;DHT22;20469;55.638;37.670;2022-07-23T08:21:56;28.20;90.10
34201;DHT22;20469;55.638;37.670;2022-07-23T08:24:23;28.00;90.00
34201;DHT22;20469;55.638;37.670;2022-07-23T08:26:50;27.70;91.20
34201;DHT22;20469;55.638;37.670;2022-07-23T08:29:17;28.80;90.90
34201;DHT22;20469;55.638;37.670;2022-07-23T08:31:51;29.40;87.60
34201;DHT22;20469;55.638;37.670;2022-07-23T08:34:18;29.80;86.40
34201;DHT22;20469;55.638;37.670;2022-07-23T08:36:45;29.70;80.00
34201;DHT22;20469;55.638;37.670;2022-07-23T08:39:13;29.60;82.20
34201;DHT22;20469;55.638;37.670;2022-07-23T08:41:40;28.40;80.90
34201;DHT22;20469;55.638;37.670;2022-07-23T08:44:08;28.40;79.20
34201;DHT22;20469;55.638;37.670;2022-07-23T08:46:36;28.60;77.40
34201;DHT22;20469;55.638;37.670;2022-07-23T08:49:10;28.80;73.30
34201;DHT22;20469;55.638;37.670;2022-07-23T08:51:38;28.60;73.50
34201;DHT22;20469;55.638;37.670;2022-07-23T08:54:06;28.60;69.30
34201;DHT22;20469;55.638;37.670;2022-07-23T08:56:35;28.50;68.60
34201;DHT22;20469;55.638;37.670;2022-07-23T08:59:02;29.00;67.70
34201;DHT22;20469;55.638;37.670;2022-07-23T09:01:30;29.70;70.40
34201;DHT22;20469;55.638;37.670;2022-07-23T09:04:14;29.80;65.20
34201;DHT22;20469;55.638;37.670;2022-07-23T09:06:41;30.10;68.50
34201;DHT22;20469;55.638;37.670;2022-07-23T09:09:19;29.60;63.10
34201;DHT22;20469;55.638;37.670;2022-07-23T09:11:48;29.10;62.40
34201;DHT22;20469;55.638;37.670;2022-07-23T09:14:15;29.00;62.30
34201;DHT22;20469;55.638;37.670;2022-07-23T09:16:42;29.10;60.90
34201;DHT22;20469;55.638;37.670;2022-07-23T09:19:11;28.90;61.20
34201;DHT22;20469;55.638;37.670;2022-07-23T09:21:39;28.90;60.30
34201;DHT22;20469;55.638;37.670;2022-07-23T09:24:09;28.50;59.90
34201;DHT22;20469;55.638;37.670;2022-07-23T09:34:28;28.80;59.40
34201;DHT22;20469;55.638;37.670;2022-07-23T09:36:57;29.50;52.30
34201;DHT22;20469;55.638;37.670;2022-07-23T09:39:32;30.10;49.90
34201;DHT22;20469;55.638;37.670;2022-07-23T09:44:47;31.30;50.80
34201;DHT22;20469;55.638;37.670;2022-07-23T09:47:15;30.20;55.20
34201;DHT22;20469;55.638;37.670;2022-07-23T09:50:10;29.50;59.70
34201;DHT22;20469;55.638;37.670;2022-07-23T09:52:48;29.00;57.90
34201;DHT22;20469;55.638;37.670;2022-07-23T09:55:18;28.10;58.60
34201;DHT22;20469;55.638;37.670;2022-07-23T09:57:46;28.30;63.20
34201;DHT22;20469;55.638;37.670;2022-07-23T10:00:23;28.80;60.90
34201;DHT22;20469;55.638;37.670;2022-07-23T10:02:51;28.60;64.10
34201;DHT22;20469;55.638;37.670;2022-07-23T10:05:19;28.80;59.00
34201;DHT22;20469;55.638;37.670;2022-07-23T10:07:48;28.40;62.30
34201;DHT22;20469;55.638;37.670;2022-07-23T10:10:21;28.20;60.10
34201;DHT22;20469;55.638;37.670;2022-07-23T10:12:49;29.20;59.50
34201;DHT22;20469;55.638;37.670;2022-07-23T10:15:35;29.70;57.00
34201;DHT22;20469;55.638;37.670;2022-07-23T10:18:03;30.70;56.20
34201;DHT22;20469;55.638;37.670;2022-07-23T10:20:30;31.10;50.40
34201;DHT22;20469;55.638;37.670;2022-07-23T10:23:08;31.10;53.00
34201;DHT22;20469;55.638;37.670;2022-07-23T10:25:41;30.60;55.30
34201;DHT22;20469;55.638;37.670;2022-07-23T10:28:40;29.70;54.40
34201;DHT22;20469;55.638;37.670;2022-07-23T10:37:07;29.20;56.30
34201;DHT22;20469;55.638;37.670;2022-07-23T10:39:38;29.20;60.10
34201;DHT22;20469;55.638;37.670;2022-07-23T10:42:13;29.70;56.10
34201;DHT22;20469;55.638;37.670;2022-07-23T10:44:48;30.30;49.20
34201;DHT22;20469;55.638;37.670;2022-07-23T10:47:29;30.80;46.30
34201;DHT22;20469;55.638;37.670;2022-07-23T10:50:29;31.20;49.40
34201;DHT22;20469;55.638;37.670;2022-07-23T10:53:08;32.00;45.90
34201;DHT22;20469;55.638;37.670;2022-07-23T10:58:04;31.80;42.20
34201;DHT22;20469;55.638;37.670;2022-07-23T11:00:33;32.40;42.50
34201;DHT22;20469;55.638;37.670;2022-07-23T11:03:04;31.90;36.50
34201;DHT22;20469;55.638;37.670;2022-07-23T11:24:17;30.20;48.70
34201;DHT22;20469;55.638;37.670;2022-07-23T11:26:49;30.30;48.40
34201;DHT22;20469;55.638;37.670;2022-07-23T11:32:09;28.70;51.20
34201;DHT22;20469;55.638;37.670;2022-07-23T11:34:46;28.70;52.40
34201;DHT22;20469;55.638;37.670;2022-07-23T11:37:34;28.30;52.20
34201;DHT22;20469;55.638;37.670;2022-07-23T11:40:10;28.30;53.50
34201;DHT22;20469;55.638;37.670;2022-07-23T11:42:39;28.70;55.30
34201;DHT22;20469;55.638;37.670;2022-07-23T11:45:08;28.80;54.80
34201;DHT22;20469;55.638;37.670;2022-07-23T11:47:35;28.50;52.60
34201;DHT22;20469;55.638;37.670;2022-07-23T11:50:05;28.50;54.80
34201;DHT22;20469;55.638;37.670;2022-07-23T11:52:33;28.40;52.30
34201;DHT22;20469;55.638;37.670;2022-07-23T11:55:06;28.60;54.70
34201;DHT22;20469;55.638;37.670;2022-07-23T11:57:37;28.70;53.80
34201;DHT22;20469;55.638;37.670;2022-07-23T12:02:40;28.70;55.10
34201;DHT22;20469;55.638;37.670;2022-07-23T12:05:11;28.60;53.40
34201;DHT22;20469;55.638;37.670;2022-07-23T12:07:42;28.20;55.20
34201;DHT22;20469;55.638;37.670;2022-07-23T12:10:40;28.10;55.40
34201;DHT22;20469;55.638;37.670;2022-07-23T12:15:40;28.30;53.10
34201;DHT22;20469;55.638;37.670;2022-07-23T12:18:11;30.40;53.20
34201;DHT22;20469;55.638;37.670;2022-07-23T12:20:44;34.90;38.40
34201;DHT22;20469;55.638;37.670;2022-07-23T12:23:13;35.80;29.90
34201;DHT22;20469;55.638;37.670;2022-07-23T12:25:48;36.50;27.40
34201;DHT22;20469;55.638;37.670;2022-07-23T12:28:17;35.40;28.10
34201;DHT22;20469;55.638;37.670;2022-07-23T12:30:47;34.80;28.70
34201;DHT22;20469;55.638;37.670;2022-07-23T12:33:33;33.90;29.20
34201;DHT22;20469;55.638;37.670;2022-07-23T12:36:04;34.20;29.30
34201;DHT22;20469;55.638;37.670;2022-07-23T12:38:50;31.90;32.80
34201;DHT22;20469;55.638;37.670;2022-07-23T12:41:19;30.60;38.50
34201;DHT22;20469;55.638;37.670;2022-07-23T12:43:47;32.60;37.00
34201;DHT22;20469;55.638;37.670;2022-07-23T12:46:16;33.70;30.70
34201;DHT22;20469;55.638;37.670;2022-07-23T12:51:29;29.70;42.00
34201;DHT22;20469;55.638;37.670;2022-07-23T12:56:29;28.60;47.10
34201;DHT22;20469;55.638;37.670;2022-07-23T13:01:36;28.80;49.90
34201;DHT22;20469;55.638;37.670;2022-07-23T13:09:24;28.60;46.00
34201;DHT22;20469;55.638;37.670;2022-07-23T13:11:53;28.90;47.20
34201;DHT22;20469;55.638;37.670;2022-07-23T13:14:24;29.10;44.30
34201;DHT22;20469;55.638;37.670;2022-07-23T13:16:55;29.20;43.10
34201;DHT22;20469;55.638;37.670;2022-07-23T13:19:27;32.90;40.20
34201;DHT22;20469;55.638;37.670;2022-07-23T13:21:54;35.20;27.60
34201;DHT22;20469;55.638;37.670;2022-07-23T13:24:22;34.70;27.00
34201;DHT22;20469;55.638;37.670;2022-07-23T13:26:49;33.20;28.60
34201;DHT22;20469;55.638;37.670;2022-07-23T13:29:18;31.30;32.30
34201;DHT22;20469;55.638;37.670;2022-07-23T13:31:46;31.60;38.00
34201;DHT22;20469;55.638;37.670;2022-07-23T13:34:15;34.90;28.90
34201;DHT22;20469;55.638;37.670;2022-07-23T13:36:42;35.20;26.20
34201;DHT22;20469;55.638;37.670;2022-07-23T13:39:10;33.00;29.10
34201;DHT22;20469;55.638;37.670;2022-07-23T13:41:38;34.20;27.10
34201;DHT22;20469;55.638;37.670;2022-07-23T13:44:15;35.00;24.30
34201;DHT22;20469;55.638;37.670;2022-07-23T13:46:42;36.00;21.50
34201;DHT22;20469;55.638;37.670;2022-07-23T13:49:10;36.00;23.80
34201;DHT22;20469;55.638;37.670;2022-07-23T13:51:39;35.10;21.90
34201;DHT22;20469;55.638;37.670;2022-07-23T13:54:08;36.50;21.40
34201;DHT22;20469;55.638;37.670;2022-07-23T13:56:36;36.90;20.20
34201;DHT22;20469;55.638;37.670;2022-07-23T13:59:03;37.00;18.90
34201;DHT22;20469;55.638;37.670;2022-07-23T14:01:33;37.00;18.10
34201;DHT22;20469;55.638;37.670;2022-07-23T14:04:16;36.10;19.20
34201;DHT22;20469;55.638;37.670;2022-07-23T14:06:44;36.70;20.20
34201;DHT22;20469;55.638;37.670;2022-07-23T14:09:18;37.00;17.40
34201;DHT22;20469;55.638;37.670;2022-07-23T14:11:46;35.50;17.40
34201;DHT22;20469;55.638;37.670;2022-07-23T14:14:13;34.70;19.70
34201;DHT22;20469;55.638;37.670;2022-07-23T14:16:41;35.40;18.50
34201;DHT22;20469;55.638;37.670;2022-07-23T14:19:08;35.40;19.60
34201;DHT22;20469;55.638;37.670;2022-07-23T14:21:36;35.30;19.90
34201;DHT22;20469;55.638;37.670;2022-07-23T14:24:05;33.10;23.20
34201;DHT22;20469;55.638;37.670;2022-07-23T14:26:32;31.30;26.30
34201;DHT22;20469;55.638;37.670;2022-07-23T14:28:59;30.30;29.30
34201;DHT22;20469;55.638;37.670;2022-07-23T14:31:28;30.70;31.90
34201;DHT22;20469;55.638;37.670;2022-07-23T14:33:55;30.20;28.50
34201;DHT22;20469;55.638;37.670;2022-07-23T14:36:24;30.30;30.80
34201;DHT22;20469;55.638;37.670;2022-07-23T14:38:52;30.00;29.90
34201;DHT22;20469;55.638;37.670;2022-07-23T14:41:19;29.50;33.00
34201;DHT22;20469;55.638;37.670;2022-07-23T14:44:04;29.40;32.10
34201;DHT22;20469;55.638;37.670;2022-07-23T14:46:31;29.80;33.50
34201;DHT22;20469;55.638;37.670;2022-07-23T14:48:59;29.60;33.80
34201;DHT22;20469;55.638;37.670;2022-07-23T14:51:27;29.60;34.00
34201;DHT22;20469;55.638;37.670;2022-07-23T14:53:54;29.20;35.90
34201;DHT22;20469;55.638;37.670;2022-07-23T14:56:22;29.10;38.60
34201;DHT22;20469;55.638;37.670;2022-07-23T14:58:49;28.90;36.70
34201;DHT22;20469;55.638;37.670;2022-07-23T15:01:16;29.20;35.70
34201;DHT22;20469;55.638;37.670;2022-07-23T15:03:43;29.10;35.80
34201;DHT22;20469;55.638;37.670;2022-07-23T15:06:11;29.00;38.20
34201;DHT22;20469;55.638;37.670;2022-07-23T15:08:40;28.80;41.70
34201;DHT22;20469;55.638;37.670;2022-07-23T15:11:09;28.80;40.30
34201;DHT22;20469;55.638;37.670;2022-07-23T15:13:37;28.60;40.70
34201;DHT22;20469;55.638;37.670;2022-07-23T15:16:09;28.60;37.80
34201;DHT22;20469;55.638;37.670;2022-07-23T15:18:36;29.00;37.00
34201;DHT22;20469;55.638;37.670;2022-07-23T15:21:04;29.10;37.90
34201;DHT22;20469;55.638;37.670;2022-07-23T15:23:33;29.10;39.70
34201;DHT22;20469;55.638;37.670;2022-07-23T15:26:02;28.90;39.20
34201;DHT22;20469;55.638;37.670;2022-07-23T15:28:30;28.80;39.30
34201;DHT22;20469;55.638;37.670;2022-07-23T15:30:57;28.70;40.60
34201;DHT22;20469;55.638;37.670;2022-07-23T15:33:24;28.90;39.80
34201;DHT22;20469;55.638;37.670;2022-07-23T15:35:52;28.80;37.90
34201;DHT22;20469;55.638;37.670;2022-07-23T15:38:24;29.00;38.80
34201;DHT22;20469;55.638;37.670;2022-07-23T15:40:53;29.20;35.70
34201;DHT22;20469;55.638;37.670;2022-07-23T15:43:25;28.80;36.80
34201;DHT22;20469;55.638;37.670;2022-07-23T15:45:53;28.50;37.30
34201;DHT22;20469;55.638;37.670;2022-07-23T15:48:21;28.40;40.00
34201;DHT22;20469;55.638;37.670;2022-07-23T15:50:50;28.60;41.40
34201;DHT22;20469;55.638;37.670;2022-07-23T15:53:18;28.50;41.80
34201;DHT22;20469;55.638;37.670;2022-07-23T15:56:04;28.60;42.90
34201;DHT22;20469;55.638;37.670;2022-07-23T15:58:35;28.80;41.90
34201;DHT22;20469;55.638;37.670;2022-07-23T16:01:03;28.90;40.90
34201;DHT22;20469;55.638;37.670;2022-07-23T16:03:34;28.80;40.80
34201;DHT22;20469;55.638;37.670;2022-07-23T16:06:03;28.80;39.10
34201;DHT22;20469;55.638;37.670;2022-07-23T16:08:38;28.80;40.00
34201;DHT22;20469;55.638;37.670;2022-07-23T16:11:06;28.80;39.90
34201;DHT22;20469;55.638;37.670;2022-07-23T16:13:33;28.80;38.20
34201;DHT22;20469;55.638;37.670;2022-07-23T16:16:01;28.70;40.70
34201;DHT22;20469;55.638;37.670;2022-07-23T16:18:29;28.80;41.70
34201;DHT22;20469;55.638;37.670;2022-07-23T16:20:57;28.80;40.70
34201;DHT22;20469;55.638;37.670;2022-07-23T16:23:33;28.80;41.00
34201;DHT22;20469;55.638;37.670;2022-07-23T16:26:00;28.70;42.10